Cape Canaveral AFS Skid Strip Cocoa Beach US
ICAO: KXMR
IATA: XMR
Category: Medium
Scheduled Services: No

Elevation: 10 ft
TransAlt. 18000 ft.

Airport Communications:
ORLANDO APP/DEP:134.95
PMSV METRO:344.6
CAPE TWR:118.625
:239.05

KXMR Zoom In..

If you have problems with the map follow the link
https://www.worldairports.se/pages/airport.php?
ICAO=KXMR

Runways:

(A) RW 13 length 10000 ft width 200 ft
---- / hdg 131

(B) RW 31 length 10000 ft width 200 ft
---- / hdg 311

Location; KXMR
Day. 13 / Time. 13.56 Zulu
* Altimeter: 30.00
* Temperature: 23° c. 73.4°f.
* Wind from: 160° Speed 09 kn.
Dewpoint: 21° c.
Visibility: 10 Statute Miles.
Clouds: Few 15000 ft.

KXMR 131356Z AUTO 16009KT 10SM FEW150 23/21 A3000 RMK AO2 SLP162 T02300211 $


Wind From 160°
Speed 09 kn.

 
 
jpsmedia worldairports.se 2019   terms of use